createdAt,value
2019-01-09T00:33:07.458Z,55.8
2019-01-09T00:33:57.450Z,55.8
2019-01-09T00:34:48.028Z,55.8
2019-01-09T00:35:40.813Z,55.8
2019-01-09T00:36:28.132Z,55.8
2019-01-09T00:37:17.357Z,55.8
2019-01-09T00:38:07.709Z,55.8
2019-01-09T00:38:57.765Z,55.8
2019-01-09T00:39:47.542Z,55.7
2019-01-09T00:40:37.857Z,55.7
2019-01-09T00:41:28.532Z,55.7
2019-01-09T00:42:17.767Z,55.7
2019-01-09T00:43:08.402Z,55.7
2019-01-09T00:43:58.084Z,55.7
2019-01-09T00:44:48.421Z,55.7
2019-01-09T00:45:38.475Z,55.7
2019-01-09T00:46:28.814Z,55.7
2019-01-09T00:47:17.739Z,55.7
2019-01-09T00:48:08.919Z,55.6
2019-01-09T00:48:57.879Z,55.6
2019-01-09T00:49:48.226Z,55.6
2019-01-09T00:50:37.987Z,55.6
2019-01-09T00:51:28.600Z,55.6
2019-01-09T00:52:18.919Z,55.6
2019-01-09T00:53:08.712Z,55.6
2019-01-09T00:53:58.751Z,55.6
2019-01-09T00:54:48.825Z,55.6
2019-01-09T00:55:38.334Z,55.6
2019-01-09T00:56:28.926Z,55.6
2019-01-09T00:57:18.996Z,55.6
2019-01-09T00:58:09.663Z,55.6
2019-01-09T00:58:58.619Z,55.6
2019-01-09T00:59:49.161Z,55.5
2019-01-09T01:00:39.024Z,55.6
2019-01-09T01:01:29.271Z,55.5
2019-01-09T01:02:19.972Z,55.5
2019-01-09T01:03:09.192Z,55.5
2019-01-09T01:03:59.833Z,55.5
2019-01-09T01:04:49.506Z,55.5
2019-01-09T01:05:48.189Z,55.5
2019-01-09T01:06:29.036Z,55.4
2019-01-09T01:07:19.663Z,55.4
2019-01-09T01:08:10.000Z,55.4
2019-01-09T01:08:59.499Z,55.4
2019-01-09T01:09:50.433Z,55.4
2019-01-09T01:10:40.428Z,55.4
2019-01-09T01:11:29.933Z,55.4
2019-01-09T01:12:20.355Z,55.4
2019-01-09T01:13:09.799Z,55.4
2019-01-09T01:14:00.368Z,55.4
2019-01-09T01:14:49.937Z,55.4
2019-01-09T01:15:39.928Z,55.4
2019-01-09T01:16:30.552Z,55.4
2019-01-09T01:17:20.345Z,55.4
2019-01-09T01:18:11.027Z,55.3
2019-01-09T01:19:00.717Z,55.4
2019-01-09T01:19:50.830Z,55.4
2019-01-09T01:20:41.105Z,55.3
2019-01-09T01:21:30.328Z,55.3
2019-01-09T01:22:20.207Z,55.3
2019-01-09T01:23:11.194Z,55.3
2019-01-09T01:24:00.783Z,55.3
2019-01-09T01:24:50.564Z,55.3
2019-01-09T01:25:40.913Z,55.3
2019-01-09T01:26:30.680Z,55.3
2019-01-09T01:27:21.277Z,55.3
2019-01-09T01:28:11.607Z,55.3
2019-01-09T01:29:01.107Z,55.3
2019-01-09T01:29:51.164Z,55.3
2019-01-09T01:30:41.219Z,55.3
2019-01-09T01:31:31.566Z,55.3
2019-01-09T01:32:21.323Z,55.2
2019-01-09T01:33:11.411Z,55.3
2019-01-09T01:34:01.732Z,55.2
2019-01-09T01:34:52.144Z,55.2
2019-01-09T01:35:42.115Z,55.2
2019-01-09T01:36:31.404Z,55.2
2019-01-09T01:37:21.669Z,55.2
2019-01-09T01:38:12.014Z,55.2
2019-01-09T01:39:01.796Z,55.1
2019-01-09T01:39:52.411Z,55.1
2019-01-09T01:40:42.159Z,55.1
2019-01-09T01:41:32.222Z,55.1
2019-01-09T01:42:22.561Z,55.1
2019-01-09T01:43:12.066Z,55.1
2019-01-09T01:44:02.678Z,55.1
2019-01-09T01:44:52.728Z,55.1
2019-01-09T01:45:42.600Z,55.1
2019-01-09T01:46:32.084Z,55.1
2019-01-09T01:47:22.328Z,55.1
2019-01-09T01:48:12.121Z,55.1
2019-01-09T01:49:02.739Z,55.1
2019-01-09T01:49:53.078Z,55.1
2019-01-09T01:50:42.858Z,55.1
2019-01-09T01:51:32.899Z,55
2019-01-09T01:52:23.223Z,55.1
2019-01-09T01:53:12.810Z,55
2019-01-09T01:54:02.608Z,55
2019-01-09T01:54:53.142Z,55
2019-01-09T01:55:43.458Z,55
2019-01-09T01:56:33.274Z,55
2019-01-09T01:57:23.278Z,54.9
2019-01-09T01:58:12.810Z,55
2019-01-09T01:59:03.787Z,54.9
2019-01-09T01:59:53.537Z,54.9
2019-01-09T02:00:42.967Z,54.9
2019-01-09T02:01:33.850Z,54.9
2019-01-09T02:02:23.740Z,54.9
2019-01-09T02:03:13.418Z,54.9
2019-01-09T02:04:03.187Z,54.9
2019-01-09T02:04:54.067Z,54.9
2019-01-09T02:05:43.549Z,54.9
2019-01-09T02:06:33.617Z,54.9
2019-01-09T02:07:23.942Z,54.9
2019-01-09T02:08:14.277Z,54.9
2019-01-09T02:09:03.794Z,54.9
2019-01-09T02:09:54.411Z,54.9
2019-01-09T02:10:44.262Z,54.9
2019-01-09T02:11:33.700Z,54.8
2019-01-09T02:12:24.559Z,54.8
2019-01-09T02:13:13.784Z,54.8
2019-01-09T02:14:04.679Z,54.8
2019-01-09T02:14:54.184Z,54.8
2019-01-09T02:15:44.537Z,54.8
2019-01-09T02:16:34.574Z,54.8
2019-01-09T02:17:24.081Z,54.8
2019-01-09T02:18:14.441Z,54.8
2019-01-09T02:19:04.750Z,54.8
2019-01-09T02:19:54.540Z,54.8
2019-01-09T02:20:44.860Z,54.8
2019-01-09T02:21:34.937Z,54.8
2019-01-09T02:22:25.251Z,54.8
2019-01-09T02:23:14.741Z,54.8
2019-01-09T02:24:05.356Z,54.8
2019-01-09T02:24:55.234Z,54.7
2019-01-09T02:25:44.362Z,54.7
2019-01-09T02:26:35.251Z,54.7
2019-01-09T02:27:25.109Z,54.7
2019-01-09T02:28:15.641Z,54.7
2019-01-09T02:29:05.415Z,54.7
2019-01-09T02:29:54.918Z,54.7
2019-01-09T02:30:44.974Z,54.6
2019-01-09T02:31:35.663Z,54.7
2019-01-09T02:32:25.089Z,54.6
2019-01-09T02:33:15.688Z,54.6
2019-01-09T02:34:06.110Z,54.6
2019-01-09T02:34:55.828Z,54.6
2019-01-09T02:35:45.641Z,54.6
2019-01-09T02:36:35.948Z,54.6
2019-01-09T02:37:25.821Z,54.6
2019-01-09T02:38:16.070Z,54.6
2019-01-09T02:39:06.478Z,54.6
2019-01-09T02:39:56.168Z,54.6
2019-01-09T02:40:46.498Z,54.6
2019-01-09T02:41:35.989Z,54.5
2019-01-09T02:42:26.038Z,54.5
2019-01-09T02:43:15.818Z,54.4
2019-01-09T02:44:06.706Z,54.4
2019-01-09T02:44:56.801Z,54.6
2019-01-09T02:45:46.002Z,54.7
2019-01-09T02:46:36.350Z,54.9
2019-01-09T02:47:26.960Z,55
2019-01-09T02:48:16.502Z,55.2
2019-01-09T02:49:06.804Z,55.4
2019-01-09T02:49:56.270Z,55.6
2019-01-09T02:50:46.737Z,55.8
2019-01-09T02:51:35.839Z,56
2019-01-09T02:52:27.049Z,56.3
2019-01-09T02:53:17.342Z,56.5
2019-01-09T02:54:06.595Z,56.8
2019-01-09T02:54:57.467Z,56.9
2019-01-09T02:55:47.551Z,57.2
2019-01-09T02:56:37.009Z,57.4
2019-01-09T02:57:27.767Z,57.7
2019-01-09T02:58:17.650Z,57.9
2019-01-09T02:59:07.202Z,58.2
2019-01-09T02:59:57.774Z,58.4
2019-01-09T03:00:47.574Z,58.6
2019-01-09T03:01:37.134Z,58.9
2019-01-09T03:02:27.691Z,59.1
2019-01-09T03:03:17.460Z,59.3
2019-01-09T03:04:07.817Z,59.6
2019-01-09T03:04:58.098Z,59.8
2019-01-09T03:05:47.620Z,60
2019-01-09T03:06:38.229Z,60.2
2019-01-09T03:07:28.046Z,60.3
2019-01-09T03:08:18.486Z,60.4
2019-01-09T03:09:07.642Z,60.6
2019-01-09T03:09:57.921Z,60.9
2019-01-09T03:10:48.493Z,61.1
2019-01-09T03:11:38.267Z,61.3
2019-01-09T03:12:28.348Z,61.6
2019-01-09T03:13:18.123Z,61.8
2019-01-09T03:14:08.506Z,62
2019-01-09T03:14:58.245Z,62.3
2019-01-09T03:15:48.376Z,62.5
2019-01-09T03:16:38.687Z,62.7
2019-01-09T03:17:27.640Z,62.8
2019-01-09T03:18:18.198Z,62.8
2019-01-09T03:19:08.783Z,62.9
2019-01-09T03:19:58.849Z,63.2
2019-01-09T03:20:49.040Z,63.3
2019-01-09T03:21:38.955Z,63.3
2019-01-09T03:22:28.440Z,63.3
2019-01-09T03:23:19.110Z,63.5
2019-01-09T03:24:08.467Z,63.6
2019-01-09T03:24:58.733Z,63.6
2019-01-09T03:25:49.246Z,63.7
2019-01-09T03:26:39.103Z,63.9
2019-01-09T03:27:28.540Z,64
2019-01-09T03:28:19.399Z,64
2019-01-09T03:29:09.195Z,64
2019-01-09T03:29:58.949Z,64.2
2019-01-09T03:30:49.148Z,64.3
2019-01-09T03:31:39.251Z,64.4
2019-01-09T03:32:29.928Z,64.4
2019-01-09T03:33:20.013Z,64.4
2019-01-09T03:34:09.792Z,64.6
2019-01-09T03:34:59.859Z,64.7
2019-01-09T03:35:50.169Z,64.8
2019-01-09T03:36:39.134Z,64.8
2019-01-09T03:37:29.469Z,64.8
2019-01-09T03:38:19.786Z,64.9
2019-01-09T03:39:09.869Z,65.1
2019-01-09T03:40:00.257Z,65.3
2019-01-09T03:40:50.244Z,65.3
2019-01-09T03:41:40.271Z,65.3
2019-01-09T03:42:29.780Z,65.4
2019-01-09T03:43:19.896Z,65.4
2019-01-09T03:44:09.979Z,65.5
2019-01-09T03:45:00.379Z,65.6
2019-01-09T03:45:50.561Z,65.6
2019-01-09T03:46:41.058Z,65.6
2019-01-09T03:47:30.709Z,65.6
2019-01-09T03:48:20.452Z,65.6
2019-01-09T03:49:10.774Z,65.6
2019-01-09T03:50:00.239Z,65.6
2019-01-09T03:50:50.342Z,65.6
2019-01-09T03:51:40.663Z,65.6
2019-01-09T03:52:30.839Z,65.6
2019-01-09T03:53:20.975Z,65.6
2019-01-09T03:54:11.133Z,65.6
2019-01-09T03:55:01.163Z,65.6
2019-01-09T03:55:50.966Z,65.6
2019-01-09T03:56:41.026Z,65.5
2019-01-09T03:57:31.356Z,65.5
2019-01-09T03:58:20.848Z,65.5
2019-01-09T03:59:11.020Z,65.5
2019-01-09T04:00:01.726Z,65.5
2019-01-09T04:00:51.862Z,65.5
2019-01-09T04:01:41.368Z,65.4
2019-01-09T04:02:31.702Z,65.4
2019-01-09T04:03:21.615Z,65.4
2019-01-09T04:04:12.083Z,65.4
2019-01-09T04:05:02.280Z,65.4
2019-01-09T04:05:52.183Z,65.4
2019-01-09T04:06:45.122Z,65.4
2019-01-09T04:07:30.935Z,65.4
2019-01-09T04:08:22.050Z,65.4
2019-01-09T04:09:12.199Z,65.4
2019-01-09T04:10:02.607Z,65.4
2019-01-09T04:10:52.042Z,65.4
2019-01-09T04:11:41.462Z,65.3
2019-01-09T04:12:32.082Z,65.3
2019-01-09T04:13:21.882Z,65.3
2019-01-09T04:14:12.585Z,65.3
2019-01-09T04:15:02.721Z,65.3
2019-01-09T04:15:52.315Z,65.3
2019-01-09T04:16:42.797Z,65.3
2019-01-09T04:17:32.723Z,65.3
2019-01-09T04:18:22.745Z,65.3
2019-01-09T04:19:12.527Z,65.3
2019-01-09T04:20:02.602Z,65.3
2019-01-09T04:20:52.616Z,65.3
2019-01-09T04:21:42.472Z,65.3
2019-01-09T04:22:33.306Z,65.2
2019-01-09T04:23:23.353Z,65.2
2019-01-09T04:24:13.156Z,65.2
2019-01-09T04:25:03.126Z,65.2
2019-01-09T04:25:53.294Z,65.2
2019-01-09T04:26:43.406Z,65.1
2019-01-09T04:27:32.259Z,65.1
2019-01-09T04:28:23.505Z,65.1
2019-01-09T04:29:13.749Z,65.1
2019-01-09T04:30:03.876Z,65.1
2019-01-09T04:30:53.906Z,65.1
2019-01-09T04:31:43.736Z,65.1
2019-01-09T04:32:33.546Z,65.1
2019-01-09T04:33:23.896Z,65.1
2019-01-09T04:34:13.630Z,65.1
2019-01-09T04:35:03.916Z,65.1
2019-01-09T04:35:54.040Z,65.1
2019-01-09T04:36:53.725Z,65.1
2019-01-09T04:37:33.738Z,65
2019-01-09T04:38:23.287Z,65
2019-01-09T04:39:13.865Z,65
2019-01-09T04:40:04.384Z,65
2019-01-09T04:40:53.699Z,65
2019-01-09T04:41:43.745Z,64.9
2019-01-09T04:42:34.416Z,64.9
2019-01-09T04:43:24.153Z,64.9
2019-01-09T04:44:14.170Z,64.9
2019-01-09T04:45:04.586Z,64.9
2019-01-09T05:02:24.717Z,64.7
2019-01-09T05:03:14.494Z,64.8
2019-01-09T05:04:05.147Z,64.7
2019-01-09T05:04:53.844Z,64.7
2019-01-09T05:05:45.046Z,64.7
2019-01-09T05:06:34.987Z,64.7
2019-01-09T05:07:25.366Z,64.7
2019-01-09T05:08:14.817Z,64.7
2019-01-09T05:09:05.426Z,64.6
2019-01-09T05:09:57.183Z,64.6
2019-01-09T05:10:45.539Z,64.6
2019-01-09T05:11:35.861Z,64.6
2019-01-09T05:12:25.654Z,64.6
2019-01-09T05:13:15.676Z,64.6
2019-01-09T05:14:05.482Z,64.6
2019-01-09T05:14:55.886Z,64.6
2019-01-09T05:15:46.156Z,64.6
2019-01-09T05:16:35.929Z,64.6
2019-01-09T05:17:26.023Z,64.6
2019-01-09T05:18:16.406Z,64.5
2019-01-09T05:19:06.356Z,64.5
2019-01-09T05:19:55.611Z,64.6
2019-01-09T05:20:45.711Z,64.5
2019-01-09T05:21:36.255Z,64.5
2019-01-09T05:22:25.746Z,64.5
2019-01-09T05:23:16.157Z,64.5
2019-01-09T05:24:05.932Z,64.5
2019-01-09T05:24:55.923Z,64.5
2019-01-09T05:25:46.813Z,64.4
2019-01-09T05:26:36.598Z,64.4
2019-01-09T05:27:26.653Z,64.4
2019-01-09T05:28:16.693Z,64.4
2019-01-09T05:29:06.777Z,64.4
2019-01-09T05:29:56.510Z,64.4
2019-01-09T05:30:46.874Z,64.4
2019-01-09T05:31:36.933Z,64.4
2019-01-09T05:32:27.266Z,64.4
2019-01-09T05:33:17.312Z,64.4
2019-01-09T05:34:06.884Z,64.4
2019-01-09T05:34:56.862Z,64.4
2019-01-09T05:35:47.202Z,64.4
2019-01-09T05:36:36.978Z,64.3
2019-01-09T05:37:27.065Z,64.3
2019-01-09T05:38:17.674Z,64.3
2019-01-09T05:39:07.513Z,64.3
2019-01-09T05:39:57.462Z,64.3
2019-01-09T05:40:47.549Z,64.3
2019-01-09T05:41:37.317Z,64.3
2019-01-09T05:42:27.949Z,64.3
2019-01-09T05:43:17.414Z,64.3
2019-01-09T05:44:07.789Z,64.3
2019-01-09T05:44:59.742Z,64.3
2019-01-09T05:45:47.047Z,64.3
2019-01-09T05:46:38.216Z,64.2
2019-01-09T05:47:27.989Z,64.2
2019-01-09T05:48:18.044Z,64.2
2019-01-09T05:49:08.117Z,64.2
2019-01-09T05:49:57.897Z,64.2
2019-01-09T05:50:48.551Z,64.2
2019-01-09T05:51:38.533Z,64.2
2019-01-09T05:52:27.822Z,64.1
2019-01-09T05:53:17.838Z,64.1
2019-01-09T05:54:08.408Z,64.1
2019-01-09T05:54:57.646Z,64.1
2019-01-09T05:55:48.328Z,64.1
2019-01-09T05:56:38.301Z,64.1
2019-01-09T05:57:28.628Z,64.1
2019-01-09T05:58:18.393Z,64.1
2019-01-09T05:59:09.016Z,64.1
2019-01-09T05:59:58.255Z,64.1
2019-01-09T06:00:48.858Z,64.1
2019-01-09T06:01:38.638Z,64.1
2019-01-09T06:02:30.566Z,64.1
2019-01-09T06:03:19.298Z,64
2019-01-09T06:04:09.440Z,64
2019-01-09T06:04:58.853Z,64
2019-01-09T06:05:48.913Z,64
2019-01-09T06:06:38.428Z,64
2019-01-09T06:07:29.318Z,64
2019-01-09T06:08:19.637Z,64
2019-01-09T06:09:09.435Z,63.9
2019-01-09T06:09:59.478Z,63.9
2019-01-09T06:10:49.263Z,63.9
2019-01-09T06:11:39.313Z,63.9
2019-01-09T06:12:29.086Z,63.9
2019-01-09T06:13:20.026Z,63.9
2019-01-09T06:14:09.747Z,63.9
2019-01-09T06:14:59.792Z,63.9
2019-01-09T06:15:50.125Z,63.9
2019-01-09T06:16:39.920Z,63.9
2019-01-09T06:17:29.970Z,63.9
2019-01-09T06:18:19.739Z,63.9
2019-01-09T06:19:09.544Z,63.9
2019-01-09T06:20:00.507Z,63.8
2019-01-09T06:20:49.914Z,63.8
2019-01-09T06:21:39.698Z,63.8
2019-01-09T06:22:30.589Z,63.8
2019-01-09T06:23:20.348Z,63.8
2019-01-09T06:24:10.386Z,63.8
2019-01-09T06:25:00.719Z,63.8
2019-01-09T06:25:50.852Z,63.8
2019-01-09T06:26:40.674Z,63.8
2019-01-09T06:27:30.919Z,63.8
2019-01-09T06:28:21.069Z,63.8
2019-01-09T06:29:11.027Z,63.8
2019-01-09T06:30:00.556Z,63.8
2019-01-09T06:30:51.114Z,63.8
2019-01-09T06:31:41.189Z,63.7
2019-01-09T06:32:31.216Z,63.7
2019-01-09T06:33:21.146Z,63.7
2019-01-09T06:34:11.125Z,63.7
2019-01-09T06:35:01.433Z,63.7
2019-01-09T06:35:51.096Z,63.7
2019-01-09T06:36:40.989Z,63.6
2019-01-09T06:37:31.807Z,63.6
2019-01-09T06:38:21.366Z,63.6
2019-01-09T06:39:11.121Z,63.6
2019-01-09T06:40:01.816Z,63.6
2019-01-09T06:40:51.097Z,63.6
2019-01-09T06:41:41.565Z,63.6
2019-01-09T06:42:31.345Z,63.6
2019-01-09T06:43:21.964Z,63.6
2019-01-09T06:44:11.805Z,63.6
2019-01-09T06:45:01.624Z,63.6
2019-01-09T06:45:51.860Z,63.6
2019-01-09T06:46:41.153Z,63.6
2019-01-09T06:47:31.955Z,63.5
2019-01-09T06:48:21.832Z,63.5
2019-01-09T06:49:12.055Z,63.5
2019-01-09T06:50:01.845Z,63.5
2019-01-09T06:50:52.546Z,63.5
2019-01-09T06:51:42.298Z,63.4
2019-01-09T06:52:32.545Z,63.4
2019-01-09T06:53:22.718Z,63.5
2019-01-09T06:54:12.437Z,63.4
2019-01-09T06:55:03.300Z,63.4
2019-01-09T06:55:52.797Z,63.4
2019-01-09T06:56:42.558Z,63.4
2019-01-09T06:57:32.071Z,63.4
2019-01-09T06:58:23.366Z,63.4
2019-01-09T06:59:11.886Z,63.4
2019-01-09T07:00:02.848Z,63.4
2019-01-09T07:00:52.265Z,63.4
2019-01-09T07:01:42.426Z,63.4
2019-01-09T07:02:32.408Z,63.3
2019-01-09T07:03:23.083Z,63.3
2019-01-09T07:04:12.588Z,63.4
2019-01-09T07:05:02.555Z,63.3
2019-01-09T07:05:52.744Z,63.3
2019-01-09T07:06:43.234Z,63.3
2019-01-09T07:07:39.120Z,63.3
2019-01-09T07:08:22.787Z,63.3
2019-01-09T07:09:13.680Z,63.3
2019-01-09T07:10:05.005Z,63.3
2019-01-09T07:10:53.784Z,63.3
2019-01-09T07:11:42.997Z,63.3
2019-01-09T07:12:33.615Z,63.3
2019-01-09T07:13:23.670Z,63.3
2019-01-09T07:14:13.762Z,63.2
2019-01-09T07:15:15.299Z,63.2
2019-01-09T07:15:53.574Z,63.2
2019-01-09T07:16:43.722Z,63.2
2019-01-09T07:17:33.932Z,63.2
2019-01-09T07:18:24.292Z,63.2
2019-01-09T07:19:14.344Z,63.2
2019-01-09T07:20:04.490Z,63.1
2019-01-09T07:20:53.889Z,63.1
2019-01-09T07:21:48.932Z,63.1
2019-01-09T07:22:33.741Z,63.1
2019-01-09T07:23:26.150Z,63.1
2019-01-09T07:24:14.205Z,63.1
2019-01-09T07:25:04.483Z,63.1
2019-01-09T07:25:54.236Z,63.1
2019-01-09T07:26:44.854Z,63.1
2019-01-09T07:27:34.631Z,63.1
2019-01-09T07:28:23.848Z,63.1
2019-01-09T07:29:14.721Z,63.1
2019-01-09T07:30:04.829Z,63
2019-01-09T07:30:54.834Z,63
2019-01-09T07:31:44.627Z,63
2019-01-09T07:32:34.669Z,63
2019-01-09T07:33:24.737Z,63
2019-01-09T07:34:14.796Z,63
2019-01-09T07:35:05.229Z,62.9
2019-01-09T07:35:55.173Z,62.9
2019-01-09T07:36:45.331Z,62.9
2019-01-09T07:37:35.338Z,62.9
2019-01-09T07:38:25.613Z,62.9
2019-01-09T07:39:15.393Z,62.9
2019-01-09T07:40:05.196Z,62.9
2019-01-09T07:40:55.242Z,62.9
2019-01-09T07:41:45.541Z,62.9
2019-01-09T07:42:35.673Z,62.9
2019-01-09T07:43:25.423Z,62.9
2019-01-09T07:44:15.488Z,62.9
2019-01-09T07:45:05.800Z,62.9
2019-01-09T07:45:56.190Z,62.8
2019-01-09T07:46:46.043Z,62.8
2019-01-09T07:47:36.248Z,62.8
2019-01-09T07:48:26.035Z,62.8
2019-01-09T07:49:16.085Z,62.8
2019-01-09T07:50:06.410Z,62.8
2019-01-09T07:50:56.183Z,62.8
2019-01-09T07:51:45.977Z,62.8
2019-01-09T07:52:36.020Z,62.8
2019-01-09T07:53:25.350Z,62.8
2019-01-09T07:54:16.494Z,62.8
2019-01-09T07:55:06.497Z,62.8
2019-01-09T07:55:56.247Z,62.7
2019-01-09T07:56:45.755Z,62.7
2019-01-09T07:57:35.648Z,62.7
2019-01-09T07:58:26.419Z,62.7
2019-01-09T07:59:17.003Z,62.7
2019-01-09T08:00:07.082Z,62.6
2019-01-09T08:00:56.024Z,62.6
2019-01-09T08:01:46.694Z,62.6
2019-01-09T08:02:37.065Z,62.6
2019-01-09T08:03:27.022Z,62.6
2019-01-09T08:04:16.526Z,62.6
2019-01-09T08:05:07.154Z,62.6
2019-01-09T08:05:57.287Z,62.6
2019-01-09T08:06:47.262Z,62.6
2019-01-09T08:07:37.027Z,62.6
2019-01-09T08:08:27.379Z,62.6
2019-01-09T08:09:17.182Z,62.6
2019-01-09T08:10:06.671Z,62.6
2019-01-09T08:10:57.541Z,62.5
2019-01-09T08:11:50.004Z,62.5
2019-01-09T08:12:37.636Z,62.5
2019-01-09T08:13:27.143Z,62.5
2019-01-09T08:14:17.749Z,62.5
2019-01-09T08:15:07.812Z,62.5
2019-01-09T08:15:58.123Z,62.4
2019-01-09T08:16:47.912Z,62.4
2019-01-09T08:17:37.726Z,62.4
2019-01-09T08:18:27.811Z,62.4
2019-01-09T08:19:18.086Z,62.4
2019-01-09T08:20:07.866Z,62.4
2019-01-09T08:21:07.551Z,62.4
2019-01-09T08:21:47.978Z,62.4
2019-01-09T08:22:38.582Z,62.4
2019-01-09T08:23:28.098Z,62.4
2019-01-09T08:24:18.586Z,62.4
2019-01-09T08:25:08.292Z,62.4
2019-01-09T08:25:58.811Z,62.3
2019-01-09T08:26:48.868Z,62.3
2019-01-09T08:27:38.948Z,62.3
2019-01-09T08:28:28.703Z,62.3
2019-01-09T08:29:18.478Z,62.3
2019-01-09T08:30:08.647Z,62.3
2019-01-09T08:30:58.880Z,62.3
2019-01-09T08:31:48.928Z,62.3
2019-01-09T08:32:39.093Z,62.3
2019-01-09T08:33:28.517Z,62.3
2019-01-09T08:34:19.391Z,62.3
2019-01-09T08:35:09.157Z,62.2
2019-01-09T08:35:59.200Z,62.2
2019-01-09T08:36:49.538Z,62.2
2019-01-09T08:37:39.308Z,62.2
2019-01-09T08:38:29.100Z,62.2
2019-01-09T08:39:19.167Z,62.2
2019-01-09T08:40:09.537Z,62.2
2019-01-09T08:40:59.602Z,62.2
2019-01-09T08:41:49.310Z,62.2
2019-01-09T08:42:39.662Z,62.1
2019-01-09T08:43:29.772Z,62.1
2019-01-09T08:44:19.209Z,62.1
2019-01-09T08:45:09.831Z,62.1
2019-01-09T08:45:59.332Z,62.1
2019-01-09T08:46:49.945Z,62.1
2019-01-09T08:47:40.023Z,62.1
2019-01-09T08:48:30.052Z,62.1
2019-01-09T08:49:19.849Z,62.1
2019-01-09T08:50:10.214Z,62.1
2019-01-09T08:50:59.917Z,62
2019-01-09T08:51:50.000Z,62
2019-01-09T08:52:40.176Z,62
2019-01-09T08:53:29.834Z,62
2019-01-09T08:54:20.496Z,62
2019-01-09T08:55:10.784Z,62
2019-01-09T08:56:00.826Z,61.9
2019-01-09T08:56:50.588Z,61.9
2019-01-09T08:57:40.674Z,61.9
2019-01-09T08:58:31.070Z,61.9
2019-01-09T08:59:20.219Z,61.9
2019-01-09T09:00:11.129Z,61.9
2019-01-09T09:01:00.903Z,61.9
2019-01-09T09:16:56.922Z,61.7
2019-01-09T09:17:46.905Z,61.7
2019-01-09T09:18:37.033Z,61.7
2019-01-09T09:19:27.640Z,61.7
2019-01-09T09:20:17.502Z,61.7
2019-01-09T09:21:07.457Z,61.7
2019-01-09T09:21:57.525Z,61.6
2019-01-09T09:22:47.009Z,61.6
2019-01-09T09:23:37.882Z,61.6
2019-01-09T09:24:27.482Z,61.6
2019-01-09T09:25:17.447Z,61.6
2019-01-09T09:26:08.050Z,61.6
2019-01-09T09:26:57.852Z,61.6
2019-01-09T09:27:47.059Z,61.6
2019-01-09T09:28:37.947Z,61.6
2019-01-09T09:29:28.007Z,61.6
2019-01-09T09:30:18.105Z,61.5
2019-01-09T09:31:08.167Z,61.5
2019-01-09T09:31:58.447Z,61.5
2019-01-09T09:32:47.822Z,61.5
2019-01-09T09:33:37.009Z,61.5
2019-01-09T09:34:27.569Z,61.5
2019-01-09T09:35:18.679Z,61.4
2019-01-09T09:36:08.179Z,61.5
2019-01-09T09:36:58.846Z,61.4
2019-01-09T09:37:48.586Z,61.4
2019-01-09T09:38:38.671Z,61.4
2019-01-09T09:39:28.979Z,61.4
2019-01-09T09:40:18.444Z,61.4
2019-01-09T09:41:08.787Z,61.4
2019-01-09T09:41:58.288Z,61.4
2019-01-09T09:42:48.636Z,61.4
2019-01-09T09:43:38.698Z,61.4
2019-01-09T09:44:29.296Z,61.4
2019-01-09T09:45:19.067Z,61.4
2019-01-09T09:46:09.166Z,61.3
2019-01-09T09:46:59.510Z,61.3
2019-01-09T09:47:49.251Z,61.3
2019-01-09T09:48:38.735Z,61.3
2019-01-09T09:49:29.348Z,61.3
2019-01-09T09:50:19.430Z,61.3
2019-01-09T09:51:09.237Z,61.3
2019-01-09T09:51:59.534Z,61.3
2019-01-09T09:52:49.321Z,61.3
2019-01-09T09:53:39.072Z,61.3
2019-01-09T09:54:30.058Z,61.3
2019-01-09T09:55:19.480Z,61.2
2019-01-09T09:56:09.518Z,61.2
2019-01-09T09:56:59.842Z,61.3
2019-01-09T09:57:49.990Z,61.2
2019-01-09T09:58:39.696Z,61.2
2019-01-09T09:59:30.307Z,61.2
2019-01-09T10:00:19.527Z,61.1
2019-01-09T10:01:09.842Z,61.1
2019-01-09T10:02:00.190Z,61.1
2019-01-09T10:02:50.025Z,61.1
2019-01-09T10:03:40.577Z,61.1
2019-01-09T10:04:30.342Z,61.1
2019-01-09T10:05:20.447Z,61.1
2019-01-09T10:06:10.190Z,61.1
2019-01-09T10:07:00.512Z,61.1
2019-01-09T10:07:50.279Z,61.1
2019-01-09T10:08:40.899Z,61.1
2019-01-09T10:09:30.699Z,61.1
2019-01-09T10:10:20.759Z,61.1
2019-01-09T10:11:10.632Z,61
2019-01-09T10:12:01.117Z,61
2019-01-09T10:12:50.355Z,61
2019-01-09T10:13:40.679Z,61
2019-01-09T10:14:30.454Z,61
2019-01-09T10:15:21.344Z,60.9
2019-01-09T10:16:10.866Z,60.9
2019-01-09T10:17:00.994Z,60.9
2019-01-09T10:17:51.522Z,60.9
2019-01-09T10:18:40.469Z,60.9
2019-01-09T10:19:31.063Z,60.9
2019-01-09T10:20:20.859Z,60.9
2019-01-09T10:21:11.191Z,60.9
2019-01-09T10:22:01.547Z,60.9
2019-01-09T10:22:51.852Z,60.9
2019-01-09T10:23:41.465Z,60.9
2019-01-09T10:24:31.676Z,60.8
2019-01-09T10:25:21.730Z,60.8
2019-01-09T10:26:11.233Z,60.8
2019-01-09T10:27:01.403Z,60.8
2019-01-09T10:27:52.020Z,60.8
2019-01-09T10:28:41.955Z,60.8
2019-01-09T10:29:32.003Z,60.8
2019-01-09T10:30:21.310Z,60.8
2019-01-09T10:31:11.580Z,60.8
2019-01-09T10:32:02.458Z,60.8
2019-01-09T10:32:52.079Z,60.8
2019-01-09T10:33:42.298Z,60.8
2019-01-09T10:34:32.636Z,60.7
2019-01-09T10:35:22.775Z,60.7
2019-01-09T10:36:12.530Z,60.7
2019-01-09T10:37:01.756Z,60.7
2019-01-09T10:37:52.857Z,60.7
2019-01-09T10:38:44.457Z,60.7
2019-01-09T10:39:32.955Z,60.7
2019-01-09T10:40:23.020Z,60.6
2019-01-09T10:41:12.540Z,60.6
2019-01-09T10:42:02.653Z,60.6
2019-01-09T10:42:52.085Z,60.6
2019-01-09T10:43:42.946Z,60.6
2019-01-09T10:44:35.139Z,60.6
2019-01-09T10:45:22.880Z,60.6
2019-01-09T10:46:13.184Z,60.6
2019-01-09T10:47:02.702Z,60.6
2019-01-09T10:47:53.314Z,60.6
2019-01-09T10:48:43.299Z,60.6
2019-01-09T10:49:33.147Z,60.5
2019-01-09T10:50:23.212Z,60.5
2019-01-09T10:51:12.530Z,60.5
2019-01-09T10:52:03.147Z,60.5
2019-01-09T10:52:53.296Z,60.5
2019-01-09T10:53:43.622Z,60.5
2019-01-09T10:54:33.427Z,60.5
2019-01-09T10:55:24.025Z,60.4
2019-01-09T10:56:13.296Z,60.4
2019-01-09T10:57:03.869Z,60.4
2019-01-09T10:57:53.639Z,60.4
2019-01-09T10:58:43.686Z,60.4
2019-01-09T10:59:33.729Z,60.4
2019-01-09T11:00:24.076Z,60.4
2019-01-09T11:01:13.556Z,60.4
2019-01-09T11:02:04.477Z,60.4
2019-01-09T11:02:53.963Z,60.4
2019-01-09T11:03:44.023Z,60.4
2019-01-09T11:04:34.429Z,60.3
2019-01-09T11:05:24.681Z,60.3
2019-01-09T11:06:16.950Z,60.3
2019-01-09T11:07:04.274Z,60.3
2019-01-09T11:07:54.666Z,60.3
2019-01-09T11:08:50.623Z,60.3
2019-01-09T11:09:34.408Z,60.3
2019-01-09T11:10:24.466Z,60.3
2019-01-09T11:11:14.507Z,60.3
2019-01-09T11:12:04.850Z,60.3
2019-01-09T11:12:55.171Z,60.3
2019-01-09T11:13:44.960Z,60.2
2019-01-09T11:14:35.020Z,60.2
2019-01-09T11:15:25.368Z,60.2
2019-01-09T11:16:14.858Z,60.2
2019-01-09T11:17:05.173Z,60.2
2019-01-09T11:17:54.962Z,60.1
2019-01-09T11:18:44.825Z,60.2
2019-01-09T11:19:34.800Z,60.1
2019-01-09T11:20:25.130Z,60.1
2019-01-09T11:21:15.735Z,60.1
2019-01-09T11:22:05.270Z,60.1
2019-01-09T11:22:55.855Z,60.1
2019-01-09T11:23:45.337Z,60.1
2019-01-09T11:24:35.680Z,60.1
2019-01-09T11:25:26.010Z,60.1
2019-01-09T11:26:17.299Z,60.1
2019-01-09T11:27:06.330Z,60.1
2019-01-09T11:27:55.655Z,60.1
2019-01-09T11:28:46.392Z,60
2019-01-09T11:29:36.297Z,60
2019-01-09T11:30:26.385Z,60
2019-01-09T11:31:16.397Z,60
2019-01-09T11:32:06.310Z,60
2019-01-09T11:32:55.510Z,60
2019-01-09T11:33:45.747Z,59.9
2019-01-09T11:34:36.612Z,59.9
2019-01-09T11:35:26.692Z,59.9
2019-01-09T11:36:16.714Z,59.9
2019-01-09T11:37:06.779Z,59.9
2019-01-09T11:37:56.533Z,59.9
2019-01-09T11:38:45.526Z,59.9
2019-01-09T11:39:36.134Z,59.9
2019-01-09T11:40:26.778Z,59.9
2019-01-09T11:41:16.536Z,59.9
2019-01-09T11:42:07.133Z,59.9
2019-01-09T11:42:56.906Z,59.8
2019-01-09T11:43:46.951Z,59.8
2019-01-09T11:44:37.166Z,59.8
2019-01-09T11:45:26.810Z,59.8
2019-01-09T11:46:16.841Z,59.8
2019-01-09T11:47:07.191Z,59.8
2019-01-09T11:47:56.873Z,59.8
2019-01-09T11:48:46.482Z,59.8
2019-01-09T11:49:37.400Z,59.8
2019-01-09T11:50:27.668Z,59.8
2019-01-09T11:51:17.213Z,59.8
2019-01-09T11:52:07.515Z,59.8
2019-01-09T11:52:57.563Z,59.8
2019-01-09T11:53:47.618Z,59.7
2019-01-09T11:54:37.685Z,59.7
2019-01-09T11:55:28.118Z,59.7
2019-01-09T11:56:18.076Z,59.7
2019-01-09T11:57:07.585Z,59.7
2019-01-09T11:57:57.633Z,59.6
2019-01-09T11:58:47.959Z,59.6
2019-01-09T11:59:37.819Z,59.6
2019-01-09T12:00:28.078Z,59.6
2019-01-09T12:01:17.858Z,59.6
2019-01-09T12:02:07.895Z,59.6
2019-01-09T12:02:57.992Z,59.6
2019-01-09T12:03:48.572Z,59.6
2019-01-09T12:04:37.962Z,59.6
2019-01-09T12:05:28.117Z,59.6
2019-01-09T12:06:18.305Z,59.6
2019-01-09T12:07:08.518Z,59.6
2019-01-09T12:07:58.555Z,59.6
2019-01-09T12:08:50.912Z,59.5
2019-01-09T12:09:38.392Z,59.5
2019-01-09T12:10:33.597Z,59.5
2019-01-09T12:11:18.796Z,59.5
2019-01-09T12:12:09.151Z,59.5
2019-01-09T12:12:58.902Z,59.4